createdAt,value
2023-04-16T00:03:08.895Z,1008.785
2023-04-16T00:23:07.768Z,1008.78
2023-04-16T00:43:07.584Z,1008.796
2023-04-16T01:03:08.895Z,1008.842
2023-04-16T01:23:07.939Z,1008.814
2023-04-16T01:43:07.780Z,1009.013
2023-04-16T02:03:09.167Z,1009.159
2023-04-16T02:23:08.080Z,1009.065
2023-04-16T02:43:07.954Z,1009.182
2023-04-16T03:03:08.912Z,1009.185
2023-04-16T03:23:07.897Z,1009.364
2023-04-16T03:43:07.835Z,1009.398
2023-04-16T04:03:09.334Z,1009.507
2023-04-16T04:23:07.308Z,1009.676
2023-04-16T04:43:07.361Z,1009.831
2023-04-16T05:03:08.562Z,1010.086
2023-04-16T05:23:07.416Z,1010.342
2023-04-16T05:43:07.187Z,1010.576
2023-04-16T06:03:09.647Z,1010.717
2023-04-16T06:23:07.625Z,1010.83
2023-04-16T06:43:07.532Z,1011.015
2023-04-16T07:03:09.049Z,1011.126
2023-04-16T07:23:08.023Z,1011.317
2023-04-16T07:43:07.829Z,1011.465
2023-04-16T08:03:09.271Z,1011.716
2023-04-16T08:23:07.308Z,1011.851
2023-04-16T08:43:07.270Z,1012.061
2023-04-16T09:03:08.439Z,1012.209
2023-04-16T09:23:07.288Z,1012.318
2023-04-16T09:43:08.176Z,1012.367
2023-04-16T10:03:09.440Z,1012.525
2023-04-16T10:23:07.318Z,1012.65
2023-04-16T10:43:07.082Z,1012.74
2023-04-16T11:03:09.413Z,1012.736
2023-04-16T11:23:07.379Z,1012.756
2023-04-16T11:43:07.542Z,1012.846
2023-04-16T12:03:09.435Z,1012.925
2023-04-16T12:23:07.640Z,1013.046
2023-04-16T12:43:07.500Z,1013.182
2023-04-16T13:03:09.192Z,1013.207
2023-04-16T13:23:08.223Z,1013.285
2023-04-16T13:43:08.867Z,1013.275
2023-04-16T14:03:09.083Z,1013.223
2023-04-16T14:23:08.069Z,1013.155
2023-04-16T14:43:08.163Z,1013.085
2023-04-16T15:03:09.627Z,1013.096
2023-04-16T15:23:07.587Z,1013.158
2023-04-16T15:43:07.430Z,1013.121
2023-04-16T16:03:09.051Z,1013.183
2023-04-16T16:23:07.429Z,1013.287
2023-04-16T16:43:07.891Z,1013.371
2023-04-16T17:03:09.889Z,1013.36
2023-04-16T17:23:08.148Z,1013.369
2023-04-16T17:43:07.169Z,1013.533
2023-04-16T18:03:09.659Z,1013.577
2023-04-16T18:23:07.489Z,1013.765
2023-04-16T18:43:07.682Z,1013.907
2023-04-16T19:03:08.990Z,1014.06
2023-04-16T19:23:07.804Z,1014.148
2023-04-16T19:43:07.878Z,1014.169
2023-04-16T20:03:09.135Z,1014.2
2023-04-16T20:23:08.215Z,1014.26
2023-04-16T20:43:07.231Z,1014.24
2023-04-16T21:03:09.735Z,1014.278
2023-04-16T21:23:07.689Z,1014.369
2023-04-16T21:43:07.722Z,1014.356
2023-04-16T22:03:09.309Z,1014.415
2023-04-16T22:23:07.745Z,1014.465
2023-04-16T22:43:07.460Z,1014.555
2023-04-16T23:03:08.895Z,1014.556
2023-04-16T23:23:07.723Z,1014.673
2023-04-16T23:43:07.316Z,1014.623
